createdAt,value
2023-03-29T00:00:49.855Z,8.82
2023-03-29T00:03:17.409Z,8.60
2023-03-29T00:05:44.801Z,8.55
2023-03-29T00:08:14.369Z,8.82
2023-03-29T00:10:42.077Z,8.69
2023-03-29T00:13:08.832Z,8.79
2023-03-29T00:15:35.565Z,9.03
2023-03-29T00:18:02.196Z,8.96
2023-03-29T00:20:28.986Z,8.84
2023-03-29T00:22:55.693Z,8.78
2023-03-29T00:25:22.334Z,8.82
2023-03-29T00:27:48.930Z,8.91
2023-03-29T00:30:16.386Z,8.71
2023-03-29T00:32:43.473Z,8.76
2023-03-29T00:35:10.984Z,8.73
2023-03-29T00:37:38.378Z,8.82
2023-03-29T00:40:09.550Z,8.68
2023-03-29T00:42:36.891Z,8.88
2023-03-29T00:45:18.941Z,9.01
2023-03-29T00:47:50.317Z,8.94
2023-03-29T00:50:29.545Z,9.01
2023-03-29T00:53:01.410Z,8.85
2023-03-29T00:55:32.439Z,8.85
2023-03-29T00:58:00.810Z,9.00
2023-03-29T01:00:33.375Z,8.83
2023-03-29T01:03:05.196Z,8.89
2023-03-29T01:05:41.240Z,8.89
2023-03-29T01:08:33.621Z,8.82
2023-03-29T01:11:09.748Z,8.84
2023-03-29T01:13:58.665Z,8.85
2023-03-29T01:16:28.609Z,8.81
2023-03-29T01:18:58.277Z,8.81
2023-03-29T01:21:36.264Z,8.81
2023-03-29T01:24:06.978Z,8.79
2023-03-29T01:26:47.543Z,8.81
2023-03-29T01:29:20.644Z,8.64
2023-03-29T01:31:54.900Z,8.79
2023-03-29T01:34:27.344Z,8.84
2023-03-29T01:37:04.392Z,8.54
2023-03-29T01:39:34.102Z,8.77
2023-03-29T01:42:25.457Z,8.73
2023-03-29T01:44:58.954Z,8.84
2023-03-29T01:47:58.092Z,8.80
2023-03-29T01:50:37.813Z,8.37
2023-03-29T01:53:28.420Z,8.56
2023-03-29T01:55:59.182Z,8.48
2023-03-29T01:58:33.031Z,8.46
2023-03-29T02:01:01.166Z,8.37
2023-03-29T02:03:30.873Z,8.32
2023-03-29T02:05:58.984Z,8.47
2023-03-29T02:08:26.369Z,8.71
2023-03-29T02:10:53.469Z,8.59
2023-03-29T02:13:20.519Z,8.63
2023-03-29T02:15:48.047Z,8.51
2023-03-29T02:18:19.761Z,8.59
2023-03-29T02:20:49.722Z,8.52
2023-03-29T02:23:21.232Z,8.54
2023-03-29T02:25:50.361Z,8.59
2023-03-29T02:28:17.206Z,8.62
2023-03-29T02:30:53.573Z,8.69
2023-03-29T02:33:45.384Z,8.58
2023-03-29T02:36:28.123Z,8.33
2023-03-29T02:38:55.902Z,8.53
2023-03-29T02:41:25.448Z,8.53
2023-03-29T02:43:53.143Z,8.55
2023-03-29T02:46:20.897Z,8.68
2023-03-29T02:48:49.653Z,8.67
2023-03-29T02:51:20.872Z,8.82
2023-03-29T02:54:02.140Z,8.61
2023-03-29T02:56:29.150Z,8.52
2023-03-29T02:58:55.573Z,8.81
2023-03-29T03:01:22.937Z,8.81
2023-03-29T03:03:50.650Z,8.90
2023-03-29T03:06:17.264Z,9.03
2023-03-29T03:08:43.939Z,9.01
2023-03-29T03:11:10.408Z,8.27
2023-03-29T03:13:36.993Z,8.39
2023-03-29T03:16:03.490Z,8.34
2023-03-29T03:18:29.993Z,8.33
2023-03-29T03:20:59.168Z,8.72
2023-03-29T03:23:25.784Z,8.90
2023-03-29T03:25:52.808Z,8.96
2023-03-29T03:28:22.397Z,8.77
2023-03-29T03:30:49.585Z,8.95
2023-03-29T03:33:16.868Z,8.71
2023-03-29T03:35:46.264Z,8.78
2023-03-29T03:38:12.840Z,8.92
2023-03-29T03:40:39.248Z,9.05
2023-03-29T03:43:05.713Z,8.82
2023-03-29T03:45:32.338Z,9.01
2023-03-29T03:47:58.801Z,8.73
2023-03-29T03:50:25.331Z,8.19
2023-03-29T03:52:51.964Z,8.64
2023-03-29T03:55:18.370Z,8.99
2023-03-29T03:57:44.764Z,8.28
2023-03-29T04:00:21.055Z,8.12
2023-03-29T04:02:48.727Z,8.23
2023-03-29T04:05:16.332Z,8.56
2023-03-29T04:07:43.197Z,8.39
2023-03-29T04:10:11.200Z,8.31
2023-03-29T04:12:38.217Z,8.38
2023-03-29T04:15:05.865Z,8.82
2023-03-29T04:17:32.543Z,8.44
2023-03-29T04:20:01.225Z,8.13
2023-03-29T04:22:27.846Z,8.65
2023-03-29T04:24:54.320Z,8.62
2023-03-29T04:27:20.711Z,8.06
2023-03-29T04:29:47.617Z,8.28
2023-03-29T04:32:14.019Z,8.60
2023-03-29T04:34:40.467Z,8.61
2023-03-29T04:37:10.428Z,8.80
2023-03-29T04:39:37.624Z,8.79
2023-03-29T04:42:05.098Z,8.65
2023-03-29T04:44:33.935Z,7.79
2023-03-29T04:47:01.523Z,8.63
2023-03-29T04:49:27.944Z,8.59
2023-03-29T04:51:54.651Z,8.29
2023-03-29T04:54:21.524Z,8.59
2023-03-29T04:56:47.960Z,8.76
2023-03-29T04:59:14.455Z,8.84
2023-03-29T05:01:40.900Z,8.54
2023-03-29T05:04:07.451Z,8.65
2023-03-29T05:06:33.880Z,8.76
2023-03-29T05:09:01.147Z,8.34
2023-03-29T05:11:27.759Z,8.56
2023-03-29T05:13:57.083Z,8.44
2023-03-29T05:16:24.469Z,8.53
2023-03-29T05:18:51.711Z,8.66
2023-03-29T05:21:18.474Z,8.75
2023-03-29T05:23:44.902Z,8.86
2023-03-29T05:28:42.024Z,8.87
2023-03-29T05:31:08.716Z,8.92
2023-03-29T05:33:35.498Z,9.16
2023-03-29T05:36:06.443Z,8.85
2023-03-29T05:38:32.935Z,8.81
2023-03-29T05:41:00.479Z,9.07
2023-03-29T05:43:27.702Z,9.12
2023-03-29T05:45:55.499Z,8.72
2023-03-29T05:48:23.690Z,9.06
2023-03-29T05:54:42.878Z,8.90
2023-03-29T05:57:09.392Z,8.55
2023-03-29T05:59:36.096Z,8.86
2023-03-29T06:02:04.835Z,8.97
2023-03-29T06:04:33.412Z,8.57
2023-03-29T06:07:10.316Z,9.05
2023-03-29T06:10:04.836Z,9.10
2023-03-29T06:12:31.453Z,9.22
2023-03-29T06:15:03.304Z,9.43
2023-03-29T06:17:30.639Z,9.25
2023-03-29T06:19:57.969Z,8.65
2023-03-29T06:22:28.179Z,8.94
2023-03-29T06:24:54.660Z,9.19
2023-03-29T06:27:21.115Z,9.20
2023-03-29T06:29:48.144Z,9.49
2023-03-29T06:32:14.801Z,9.15
2023-03-29T06:34:41.545Z,9.41
2023-03-29T06:37:08.436Z,9.40
2023-03-29T06:39:34.939Z,9.41
2023-03-29T06:42:07.342Z,9.37
2023-03-29T06:44:39.765Z,9.72
2023-03-29T06:47:06.192Z,9.63
2023-03-29T06:49:32.601Z,9.87
2023-03-29T06:51:59.909Z,9.75
2023-03-29T06:54:26.972Z,9.85
2023-03-29T06:56:53.437Z,9.82
2023-03-29T06:59:19.918Z,9.78
2023-03-29T07:01:47.234Z,9.36
2023-03-29T07:04:13.973Z,9.56
2023-03-29T07:06:40.679Z,9.89
2023-03-29T07:09:07.200Z,10.08
2023-03-29T07:11:36.859Z,9.65
2023-03-29T07:14:03.749Z,9.77
2023-03-29T07:16:30.269Z,10.25
2023-03-29T07:18:57.379Z,10.51
2023-03-29T07:21:23.873Z,9.74
2023-03-29T07:23:52.155Z,10.37
2023-03-29T07:26:28.334Z,10.21
2023-03-29T07:28:56.197Z,10.13
2023-03-29T07:31:22.654Z,10.83
2023-03-29T07:33:52.411Z,10.43
2023-03-29T07:36:19.635Z,10.81
2023-03-29T07:38:46.151Z,11.10
2023-03-29T07:41:12.569Z,11.07
2023-03-29T07:43:39.181Z,11.29
2023-03-29T07:46:08.754Z,11.16
2023-03-29T07:48:37.137Z,11.54
2023-03-29T07:51:04.242Z,11.46
2023-03-29T07:53:30.931Z,11.73
2023-03-29T07:55:57.652Z,11.34
2023-03-29T07:58:24.216Z,11.64
2023-03-29T08:00:50.772Z,11.54
2023-03-29T08:03:17.736Z,12.00
2023-03-29T08:05:53.642Z,12.21
2023-03-29T08:08:20.102Z,12.27
2023-03-29T08:11:02.127Z,11.45
2023-03-29T08:13:28.996Z,11.95
2023-03-29T08:15:55.548Z,11.29
2023-03-29T08:19:52.460Z,11.89
2023-03-29T08:22:18.999Z,11.37
2023-03-29T08:24:46.337Z,11.89
2023-03-29T08:27:12.933Z,12.33
2023-03-29T08:29:39.441Z,11.60
2023-03-29T08:32:06.925Z,12.32
2023-03-29T08:34:57.068Z,12.03
2023-03-29T08:37:25.760Z,12.08
2023-03-29T08:39:52.170Z,12.13
2023-03-29T08:43:05.524Z,12.42
2023-03-29T08:45:57.051Z,12.11
2023-03-29T08:49:05.364Z,12.29
2023-03-29T08:51:37.222Z,11.80
2023-03-29T08:54:15.681Z,12.54
2023-03-29T08:56:45.846Z,12.74
2023-03-29T08:59:33.304Z,12.23
2023-03-29T09:02:02.551Z,12.58
2023-03-29T09:04:33.248Z,11.33
2023-03-29T09:06:59.799Z,11.91
2023-03-29T09:09:33.460Z,12.34
2023-03-29T09:12:20.083Z,11.56
2023-03-29T09:15:23.897Z,11.65
2023-03-29T09:22:04.205Z,11.64
2023-03-29T09:24:33.521Z,12.73
2023-03-29T09:27:20.633Z,12.27
2023-03-29T09:29:53.176Z,12.25
2023-03-29T09:32:23.193Z,12.85
2023-03-29T09:35:07.805Z,12.38
2023-03-29T09:37:38.294Z,11.82
2023-03-29T09:40:19.365Z,11.61
2023-03-29T09:42:49.328Z,12.09
2023-03-29T09:45:15.877Z,11.68
2023-03-29T09:47:54.612Z,12.59
2023-03-29T09:50:31.710Z,12.88
2023-03-29T09:52:59.064Z,12.38
2023-03-29T09:55:29.472Z,12.77
2023-03-29T09:58:00.716Z,12.83
2023-03-29T10:03:34.898Z,13.07
2023-03-29T10:06:10.847Z,12.73
2023-03-29T10:08:51.654Z,12.11
2023-03-29T10:11:28.810Z,12.54
2023-03-29T10:14:00.283Z,12.87
2023-03-29T10:16:44.685Z,12.97
2023-03-29T10:19:23.354Z,12.67
2023-03-29T10:21:52.801Z,12.80
2023-03-29T10:24:24.629Z,12.55
2023-03-29T10:26:56.989Z,12.23
2023-03-29T10:29:25.514Z,12.59
2023-03-29T10:31:52.910Z,12.97
2023-03-29T10:34:25.213Z,12.59
2023-03-29T10:36:59.782Z,13.08
2023-03-29T10:39:29.899Z,12.86
2023-03-29T10:41:59.670Z,12.65
2023-03-29T10:44:52.991Z,13.05
2023-03-29T10:47:21.482Z,13.39
2023-03-29T10:49:57.188Z,13.08
2023-03-29T10:52:24.391Z,12.60
2023-03-29T10:54:54.485Z,12.84
2023-03-29T10:57:38.634Z,13.15
2023-03-29T11:00:13.872Z,12.94
2023-03-29T11:02:49.499Z,12.40
2023-03-29T11:05:32.442Z,12.99
2023-03-29T11:08:12.500Z,12.77
2023-03-29T11:11:05.808Z,13.44
2023-03-29T11:13:47.416Z,13.03
2023-03-29T11:16:40.252Z,13.38
2023-03-29T11:19:40.610Z,13.65
2023-03-29T11:22:19.980Z,14.02
2023-03-29T11:24:55.789Z,14.03
2023-03-29T11:27:43.173Z,13.55
2023-03-29T11:30:35.152Z,14.21
2023-03-29T11:33:04.631Z,14.08
2023-03-29T11:35:52.853Z,13.77
2023-03-29T11:38:38.193Z,13.95
2023-03-29T11:41:17.598Z,13.38
2023-03-29T11:44:17.617Z,14.09
2023-03-29T11:46:59.419Z,14.65
2023-03-29T11:49:49.099Z,14.03
2023-03-29T11:52:20.736Z,14.32
2023-03-29T11:54:53.109Z,15.21
2023-03-29T11:57:38.341Z,14.84
2023-03-29T12:00:15.596Z,14.60
2023-03-29T12:02:46.210Z,14.11
2023-03-29T12:05:27.324Z,14.33
2023-03-29T12:07:58.087Z,14.31
2023-03-29T12:10:33.872Z,13.54
2023-03-29T12:13:06.025Z,14.47
2023-03-29T12:15:42.411Z,14.75
2023-03-29T12:18:45.785Z,13.45
2023-03-29T12:21:20.088Z,14.61
2023-03-29T12:23:48.033Z,14.46
2023-03-29T12:26:20.400Z,14.47
2023-03-29T12:29:13.447Z,15.06
2023-03-29T12:32:17.638Z,14.14
2023-03-29T12:34:56.353Z,14.43
2023-03-29T12:37:35.919Z,14.82
2023-03-29T12:40:13.406Z,15.40
2023-03-29T12:43:03.281Z,14.42
2023-03-29T12:45:34.286Z,15.55
2023-03-29T12:48:01.191Z,14.63
2023-03-29T12:50:37.177Z,14.88
2023-03-29T12:53:30.460Z,15.00
2023-03-29T12:56:03.648Z,15.53
2023-03-29T12:58:30.595Z,15.00
2023-03-29T13:01:07.436Z,15.80
2023-03-29T13:03:39.728Z,15.55
2023-03-29T13:06:10.109Z,14.99
2023-03-29T13:08:38.143Z,15.29
2023-03-29T13:11:06.434Z,15.13
2023-03-29T13:13:38.178Z,14.95
2023-03-29T13:16:15.609Z,15.81
2023-03-29T13:18:53.677Z,15.33
2023-03-29T13:21:37.521Z,15.29
2023-03-29T13:24:22.174Z,14.66
2023-03-29T13:27:04.269Z,15.75
2023-03-29T13:29:43.260Z,15.63
2023-03-29T13:32:27.555Z,15.35
2023-03-29T13:35:16.380Z,15.00
2023-03-29T13:38:15.700Z,15.62
2023-03-29T13:40:46.854Z,15.01
2023-03-29T13:43:19.337Z,14.64
2023-03-29T13:46:11.826Z,14.49
2023-03-29T13:48:38.244Z,15.63
2023-03-29T13:51:13.891Z,15.48
2023-03-29T13:53:47.653Z,15.19
2023-03-29T13:56:19.810Z,15.16
2023-03-29T13:58:53.327Z,14.75
2023-03-29T14:01:19.764Z,14.74
2023-03-29T14:03:49.311Z,14.65
2023-03-29T14:06:24.056Z,14.98
2023-03-29T14:08:51.752Z,14.68
2023-03-29T14:11:24.540Z,15.44
2023-03-29T14:13:57.441Z,14.11
2023-03-29T14:16:27.906Z,13.40
2023-03-29T14:18:59.057Z,13.31
2023-03-29T14:21:25.762Z,13.97
2023-03-29T14:24:01.542Z,14.97
2023-03-29T14:26:33.701Z,14.54
2023-03-29T14:29:02.064Z,14.83
2023-03-29T14:31:35.468Z,14.65
2023-03-29T14:34:04.804Z,14.77
2023-03-29T14:36:33.380Z,13.71
2023-03-29T14:39:08.311Z,13.62
2023-03-29T14:41:37.390Z,13.77
2023-03-29T14:44:06.733Z,13.59
2023-03-29T14:46:34.293Z,14.53
2023-03-29T14:49:02.304Z,14.11
2023-03-29T14:51:31.042Z,13.91
2023-03-29T14:54:00.234Z,13.86
2023-03-29T14:56:27.502Z,14.49
2023-03-29T14:58:56.592Z,13.42
2023-03-29T15:01:25.983Z,14.00
2023-03-29T15:04:08.022Z,14.46
2023-03-29T15:06:44.078Z,14.31
2023-03-29T15:09:29.972Z,14.33
2023-03-29T15:11:59.038Z,14.44
2023-03-29T15:14:29.634Z,13.94
2023-03-29T15:17:04.607Z,13.82
2023-03-29T15:19:32.097Z,14.71
2023-03-29T15:22:10.084Z,13.25
2023-03-29T15:24:42.807Z,14.30
2023-03-29T15:27:19.848Z,14.10
2023-03-29T15:29:47.351Z,14.31
2023-03-29T15:32:25.623Z,14.12
2023-03-29T15:34:59.668Z,14.00
2023-03-29T15:37:27.346Z,14.34
2023-03-29T15:39:53.848Z,13.58
2023-03-29T15:42:21.035Z,14.10
2023-03-29T15:44:47.513Z,14.14
2023-03-29T15:47:13.965Z,14.71
2023-03-29T15:49:40.684Z,13.30
2023-03-29T15:52:07.213Z,14.21
2023-03-29T15:54:34.913Z,13.89
2023-03-29T15:57:07.204Z,14.53
2023-03-29T15:59:34.812Z,14.55
2023-03-29T16:02:01.435Z,14.81
2023-03-29T16:04:27.930Z,14.83
2023-03-29T16:06:55.546Z,14.82
2023-03-29T16:09:22.907Z,14.67
2023-03-29T16:11:50.232Z,14.49
2023-03-29T16:14:29.781Z,14.73
2023-03-29T16:17:00.564Z,14.49
2023-03-29T16:19:28.184Z,14.46
2023-03-29T16:21:55.313Z,14.02
2023-03-29T16:24:28.017Z,14.59
2023-03-29T16:26:56.501Z,14.67
2023-03-29T16:29:24.557Z,14.90
2023-03-29T16:31:52.703Z,14.38
2023-03-29T16:34:20.262Z,14.25
2023-03-29T16:36:47.818Z,14.03
2023-03-29T16:39:15.039Z,14.28
2023-03-29T16:41:42.796Z,14.26
2023-03-29T16:44:16.038Z,14.43
2023-03-29T16:46:42.584Z,14.45
2023-03-29T16:49:13.900Z,14.90
2023-03-29T16:51:40.399Z,14.90
2023-03-29T16:54:07.241Z,14.88
2023-03-29T16:56:36.761Z,14.93
2023-03-29T16:59:03.726Z,14.66
2023-03-29T17:01:30.245Z,14.96
2023-03-29T17:03:57.112Z,15.10
2023-03-29T17:06:23.626Z,14.77
2023-03-29T17:08:50.510Z,15.00
2023-03-29T17:11:17.395Z,14.92
2023-03-29T17:13:44.507Z,14.71
2023-03-29T17:16:11.102Z,14.97
2023-03-29T17:18:37.858Z,14.93
2023-03-29T17:21:04.726Z,15.00
2023-03-29T17:23:31.200Z,14.78
2023-03-29T17:25:57.685Z,14.47
2023-03-29T17:28:24.404Z,14.74
2023-03-29T17:30:51.161Z,14.64
2023-03-29T17:33:19.194Z,14.84
2023-03-29T17:35:48.581Z,14.81
2023-03-29T17:38:15.020Z,14.85
2023-03-29T17:40:41.755Z,14.50
2023-03-29T17:43:08.228Z,14.63
2023-03-29T17:45:35.431Z,14.99
2023-03-29T17:48:03.462Z,15.05
2023-03-29T17:50:32.062Z,15.05
2023-03-29T17:52:58.462Z,15.08
2023-03-29T17:55:24.981Z,15.15
2023-03-29T17:57:51.683Z,14.98
2023-03-29T18:00:18.740Z,15.15
2023-03-29T18:02:45.291Z,15.19
2023-03-29T18:05:11.830Z,15.23
2023-03-29T18:07:38.302Z,15.22
2023-03-29T18:10:06.322Z,15.20
2023-03-29T18:12:32.859Z,15.24
2023-03-29T18:14:59.476Z,15.07
2023-03-29T18:17:27.350Z,15.00
2023-03-29T18:19:54.049Z,14.56
2023-03-29T18:22:20.939Z,14.82
2023-03-29T18:24:49.176Z,14.76
2023-03-29T18:27:16.012Z,14.84
2023-03-29T18:29:43.960Z,14.78
2023-03-29T18:32:11.085Z,14.97
2023-03-29T18:34:39.049Z,15.06
2023-03-29T18:37:06.026Z,15.00
2023-03-29T18:39:34.506Z,15.04
2023-03-29T18:42:01.609Z,14.98
2023-03-29T18:44:28.625Z,14.94
2023-03-29T18:46:55.100Z,14.85
2023-03-29T18:49:21.567Z,14.84
2023-03-29T18:51:49.530Z,14.86
2023-03-29T18:54:16.029Z,14.80
2023-03-29T18:56:42.543Z,14.62
2023-03-29T18:59:09.434Z,14.47
2023-03-29T19:01:36.292Z,14.41
2023-03-29T19:04:02.802Z,14.33
2023-03-29T19:06:29.551Z,14.48
2023-03-29T19:08:58.250Z,14.43
2023-03-29T19:11:26.504Z,14.05
2023-03-29T19:13:54.988Z,13.97
2023-03-29T19:16:21.699Z,14.28
2023-03-29T19:18:48.192Z,14.36
2023-03-29T19:21:14.632Z,14.16
2023-03-29T19:23:41.092Z,14.21
2023-03-29T19:26:08.605Z,13.90
2023-03-29T19:28:35.299Z,14.33
2023-03-29T19:31:03.042Z,14.49
2023-03-29T19:33:29.720Z,14.30
2023-03-29T19:35:56.669Z,14.25
2023-03-29T19:38:23.388Z,13.90
2023-03-29T19:40:51.504Z,14.37
2023-03-29T19:43:18.821Z,14.45
2023-03-29T19:45:46.935Z,14.40
2023-03-29T19:48:21.817Z,14.38
2023-03-29T19:50:50.105Z,14.33
2023-03-29T19:53:16.760Z,13.76
2023-03-29T19:55:44.984Z,14.19
2023-03-29T19:58:11.545Z,14.13
2023-03-29T20:00:38.898Z,14.20
2023-03-29T20:03:09.213Z,14.08
2023-03-29T20:05:38.094Z,14.23
2023-03-29T20:08:04.698Z,13.85
2023-03-29T20:10:31.464Z,13.62
2023-03-29T20:12:58.002Z,13.56
2023-03-29T20:15:27.893Z,13.71
2023-03-29T20:17:59.139Z,13.68
2023-03-29T20:20:26.753Z,13.78
2023-03-29T20:22:57.934Z,13.92
2023-03-29T20:25:24.869Z,13.88
2023-03-29T20:27:51.426Z,13.76
2023-03-29T20:30:17.910Z,14.01
2023-03-29T20:32:44.521Z,14.04
2023-03-29T20:35:11.579Z,13.84
2023-03-29T20:37:38.045Z,14.00
2023-03-29T20:40:05.423Z,13.60
2023-03-29T20:42:34.489Z,13.65
2023-03-29T20:45:01.351Z,13.75
2023-03-29T20:47:29.340Z,13.88
2023-03-29T20:49:56.781Z,13.95
2023-03-29T20:52:23.970Z,13.14
2023-03-29T20:54:50.504Z,13.29
2023-03-29T20:57:19.911Z,13.24
2023-03-29T20:59:48.868Z,13.40
2023-03-29T21:02:20.665Z,13.37
2023-03-29T21:04:51.846Z,13.02
2023-03-29T21:07:20.290Z,12.93
2023-03-29T21:09:50.375Z,12.92
2023-03-29T21:12:17.389Z,13.03
2023-03-29T21:14:44.615Z,12.97
2023-03-29T21:17:11.085Z,12.93
2023-03-29T21:19:39.292Z,13.23
2023-03-29T21:22:05.917Z,13.10
2023-03-29T21:24:33.089Z,13.52
2023-03-29T21:27:00.498Z,13.42
2023-03-29T21:29:27.277Z,13.83
2023-03-29T21:31:54.042Z,13.82
2023-03-29T21:34:20.584Z,13.93
2023-03-29T21:36:47.021Z,14.02
2023-03-29T21:39:13.422Z,14.09
2023-03-29T21:41:39.887Z,13.85
2023-03-29T21:44:06.308Z,13.50
2023-03-29T21:46:32.967Z,13.30
2023-03-29T21:48:59.424Z,13.67
2023-03-29T21:51:26.218Z,13.72
2023-03-29T21:53:52.688Z,13.63
2023-03-29T21:56:19.140Z,13.55
2023-03-29T21:58:45.573Z,13.55
2023-03-29T22:01:12.019Z,13.72
2023-03-29T22:03:38.690Z,13.64
2023-03-29T22:06:09.338Z,13.64
2023-03-29T22:08:40.423Z,13.36
2023-03-29T22:11:14.227Z,13.58
2023-03-29T22:13:42.003Z,13.56
2023-03-29T22:16:13.792Z,13.67
2023-03-29T22:18:43.176Z,13.30
2023-03-29T22:21:19.347Z,13.44
2023-03-29T22:23:49.320Z,13.39
2023-03-29T22:26:17.865Z,13.29
2023-03-29T22:28:44.479Z,13.59
2023-03-29T22:31:13.723Z,13.65
2023-03-29T22:33:40.982Z,13.50
2023-03-29T22:36:14.783Z,13.71
2023-03-29T22:38:41.477Z,13.72
2023-03-29T22:41:08.242Z,13.73
2023-03-29T22:43:36.345Z,13.50
2023-03-29T22:46:04.735Z,13.32
2023-03-29T22:48:33.549Z,13.07
2023-03-29T22:51:00.642Z,13.23
2023-03-29T22:53:27.239Z,13.15
2023-03-29T22:55:54.662Z,13.36
2023-03-29T22:58:21.450Z,13.43
2023-03-29T23:00:48.596Z,13.69
2023-03-29T23:03:15.544Z,13.77
2023-03-29T23:05:41.995Z,13.62
2023-03-29T23:08:08.538Z,13.55
2023-03-29T23:10:34.989Z,13.23
2023-03-29T23:13:12.750Z,13.55
2023-03-29T23:15:43.501Z,13.59
2023-03-29T23:18:13.060Z,13.68
2023-03-29T23:20:40.120Z,13.78
2023-03-29T23:23:06.772Z,13.91
2023-03-29T23:25:33.321Z,13.58
2023-03-29T23:27:59.943Z,13.84
2023-03-29T23:30:26.818Z,13.92
2023-03-29T23:32:53.685Z,13.81
2023-03-29T23:35:20.554Z,13.79
2023-03-29T23:37:47.686Z,13.77
2023-03-29T23:40:15.484Z,13.49
2023-03-29T23:42:43.697Z,13.42
2023-03-29T23:45:15.735Z,13.59
2023-03-29T23:47:43.975Z,13.52
2023-03-29T23:50:13.617Z,13.77
2023-03-29T23:52:41.673Z,13.94
2023-03-29T23:55:12.452Z,13.85
2023-03-29T23:57:38.875Z,13.46
